Fesco Vladimir — 5BSL2 — position and weather

sailwx.info

Track history (hours):
 
Tides and Currents Weather Stations Pressure Air Temp Water Temp Dewpoint Dewpoint Depression Visibility Wind Speed Wind Dir Waves Ship Positions

Fesco Vladimir

Last reported at 2017-Feb-23 15:33 UTC. Time now 2017-Feb-24 02:10 UTC.
Position N 55°41' E 006°52'.

Length 184 m; draft 9.5 m.

Type: Ship (hazmat cat A). MMSI: 209777000.

Date/timePositionNaut miles runAvg speedWind from/ knotsBaromVisibWave heightAir tempDewpointWater temp
2017-Feb-23 15:33N 55°41' E 006°52'1212.1
2017-Feb-23 14:33N 55°30' E 006°45'1313.0
2017-Feb-23 13:33N 55°17' E 006°42'1313.4
2017-Feb-23 12:33N 55°04' E 006°47'1313.5
2017-Feb-23 11:33N 54°51' E 006°55'6612.3
2017-Feb-23 06:11N 54°01' E 008°09'710.6
2017-Feb-23 05:33N 53°60' E 008°20'1514.7
2017-Feb-23 04:33N 53°53' E 008°42'1515.4
2017-Feb-23 03:34N 53°53' E 009°09'1212.4
2017-Feb-23 02:33N 53°45' E 009°25'1515.2
2017-Feb-23 01:33N 53°34' E 009°42'7 7.1
2017-Feb-23 00:31N 53°32' E 009°55'0 0.0
2017-Feb-22 23:29N 53°32' E 009°55'0 0.0
2017-Feb-22 22:32N 53°32' E 009°55'0 0.0
2017-Feb-22 21:32N 53°32' E 009°55'0 0.0
2017-Feb-22 20:32N 53°32' E 009°55'0 0.0
2017-Feb-22 19:32N 53°32' E 009°55'0 0.0
2017-Feb-22 18:32N 53°32' E 009°55'0 0.0
2017-Feb-22 17:32N 53°32' E 009°55'0 0.0
2017-Feb-22 16:32N 53°32' E 009°55'0 0.0
2017-Feb-22 15:32N 53°32' E 009°55'0 0.0
2017-Feb-22 14:33N 53°32' E 009°55'4 4.3
2017-Feb-22 13:33N 53°33' E 009°48'10 9.9
2017-Feb-22 12:33N 53°37' E 009°32'1413.9
2017-Feb-22 11:34N 53°50' E 009°21'1110.9
2017-Feb-22 10:33N 53°52' E 009°03'1212.2
2017-Feb-22 09:33N 53°53' E 008°42'1313.1
2017-Feb-22 08:33N 53°59' E 008°23'1111.5
2017-Feb-22 07:33N 53°59' E 008°03'1312.8
2017-Feb-22 06:33N 53°57' E 007°42'9114.5
2017-Feb-22 00:16N 53°32' E 005°14'1114.3
2017-Feb-21 23:30N 53°28' E 004°57'2713.8
2017-Feb-21 21:33N 53°07' E 004°28'1615.8
2017-Feb-21 20:33N 52°53' E 004°16'1514.6
2017-Feb-21 19:33N 52°40' E 004°04'1313.0
2017-Feb-21 18:33N 52°29' E 003°54'1312.7
2017-Feb-21 17:33N 52°16' E 003°52'1212.3
2017-Feb-21 16:33N 52°04' E 003°55'1110.8
2017-Feb-21 15:34N 51°58' E 004°09'1010.1
2017-Feb-21 14:33N 51°54' E 004°24'1 1.2
2017-Feb-21 13:33N 51°54' E 004°26'0 0.0
2017-Feb-21 12:33N 51°54' E 004°26'0 0.0
2017-Feb-21 11:33N 51°54' E 004°26'0 0.0
2017-Feb-21 10:33N 51°54' E 004°26'0 0.0
2017-Feb-21 09:33N 51°54' E 004°26'0 0.0
2017-Feb-21 08:33N 51°54' E 004°26'0 0.0
2017-Feb-21 07:33N 51°54' E 004°26'0 0.1
2017-Feb-21 06:34N 51°54' E 004°26'1 0.6
2017-Feb-21 05:33N 51°53' E 004°27'0 0.0
2017-Feb-21 04:33N 51°53' E 004°27'0 0.0
2017-Feb-21 03:33N 51°53' E 004°27'0 0.0
2017-Feb-21 02:33N 51°53' E 004°27'0 0.0
2017-Feb-21 01:33N 51°53' E 004°27'3 2.9
2017-Feb-21 00:33N 51°54' E 004°22'1010.3
2017-Feb-20 23:33N 51°58' E 004°07'3 2.5
2017-Feb-20 22:33N 51°57' E 004°04'0 0.2
2017-Feb-20 21:33N 51°57' E 004°04'0 0.0
2017-Feb-20 20:32N 51°57' E 004°04'0 0.0
2017-Feb-20 19:32N 51°57' E 004°04'0 0.0
2017-Feb-20 18:33N 51°57' E 004°04'0 0.0
2017-Feb-20 17:32N 51°57' E 004°04'0 0.0
2017-Feb-20 16:32N 51°57' E 004°04'0 0.0
2017-Feb-20 15:32N 51°57' E 004°04'0 0.0
2017-Feb-20 14:33N 51°57' E 004°04'1 0.6
2017-Feb-20 13:33N 51°57' E 004°05'0 0.0
2017-Feb-20 12:33N 51°57' E 004°05'0 0.0
2017-Feb-20 11:33N 51°57' E 004°05'0 0.0
2017-Feb-20 10:33N 51°57' E 004°05'0 0.0
2017-Feb-20 09:33N 51°57' E 004°05'0 0.0
2017-Feb-20 08:33N 51°57' E 004°05'0 0.0
2017-Feb-20 07:33N 51°57' E 004°05'0 0.0
2017-Feb-20 06:33N 51°57' E 004°05'0 0.0
2017-Feb-20 05:33N 51°57' E 004°05'0 0.0
2017-Feb-20 04:33N 51°57' E 004°05'0 0.0
2017-Feb-20 03:33N 51°57' E 004°05'0 0.0
2017-Feb-20 02:30N 51°57' E 004°05'0 0.0
2017-Feb-20 01:33N 51°57' E 004°05'0 0.0
2017-Feb-20 00:33N 51°57' E 004°05'0 0.0
2017-Feb-19 23:33N 51°57' E 004°05'0 0.0
2017-Feb-19 22:33N 51°57' E 004°05'0 0.0
2017-Feb-19 21:33N 51°57' E 004°05'1 0.6
2017-Feb-19 20:33N 51°58' E 004°04'2 1.6
2017-Feb-19 19:32N 51°59' E 004°02'0 0.0
2017-Feb-19 18:32N 51°59' E 004°02'0 0.0
2017-Feb-19 17:32N 51°59' E 004°02'0 0.0
2017-Feb-19 16:32N 51°59' E 004°02'0 0.0
2017-Feb-19 15:32N 51°59' E 004°02'0 0.0
2017-Feb-19 14:32N 51°59' E 004°02'0 0.0
2017-Feb-19 13:32N 51°59' E 004°02'0 0.0
2017-Feb-19 12:32N 51°59' E 004°02'0 0.0
2017-Feb-19 11:32N 51°59' E 004°02'0 0.0
2017-Feb-19 10:32N 51°59' E 004°02'0 0.0
2017-Feb-19 09:31N 51°59' E 004°02'0 0.0
2017-Feb-19 08:32N 51°59' E 004°02'0 0.0
2017-Feb-19 07:31N 51°59' E 004°02'0 0.0
2017-Feb-19 06:31N 51°59' E 004°02'0 0.0
2017-Feb-19 05:32N 51°59' E 004°02'1 1.5
2017-Feb-19 04:33N 51°58' E 004°03'1 0.8
2017-Feb-19 03:33N 51°57' E 004°02'0 0.0
2017-Feb-19 02:33N 51°57' E 004°02'0 0.0
2017-Feb-19 01:31N 51°57' E 004°02'1 1.0
2017-Feb-19 00:33N 51°58' E 004°02'2 1.9
2017-Feb-18 23:31N 51°57' E 003°59'0 0.0
2017-Feb-18 22:28N 51°57' E 003°59'0 0.0
2017-Feb-18 21:31N 51°57' E 003°59'0 0.0
2017-Feb-18 20:31N 51°57' E 003°59'0 0.0
2017-Feb-18 19:31N 51°57' E 003°59'0 0.0
2017-Feb-18 18:31N 51°57' E 003°59'0 0.0
2017-Feb-18 17:31N 51°57' E 003°59'0 0.0
2017-Feb-18 16:31N 51°57' E 003°59'0 0.0
2017-Feb-18 15:31N 51°57' E 003°59'0 0.0
2017-Feb-18 14:31N 51°57' E 003°59'0 0.0
2017-Feb-18 13:31N 51°57' E 003°59'2 1.9
2017-Feb-18 12:34N 51°59' E 004°00'1 1.5
2017-Feb-18 11:33N 52°00' E 003°59'8 8.2
2017-Feb-18 10:33N 52°03' E 003°47'6 5.6
2017-Feb-18 09:33N 52°09' E 003°46'5 5.1
2017-Feb-18 08:33N 52°14' E 003°46'5 4.6
2017-Feb-18 07:33N 52°18' E 003°47'7 7.0
2017-Feb-18 06:33N 52°25' E 003°49'1211.9
2017-Feb-18 05:33N 52°37' E 003°53'1813.2
2017-Feb-18 04:13N 52°54' E 003°59'1413.3
2017-Feb-18 03:08N 53°05' E 004°15'813.9
2017-Feb-18 02:33N 53°10' E 004°25'1413.8
2017-Feb-18 01:32N 53°23' E 004°33'4313.1
2017-Feb-17 22:16N 54°04' E 004°57'10413.4
2017-Feb-17 14:32N 55°35' E 006°22'1313.5
2017-Feb-17 13:32N 55°47' E 006°34'17611.8
2017-Feb-16 22:33N 57°49' E 010°27'1212.0
2017-Feb-16 21:33N 57°46' E 010°49'1313.2
2017-Feb-16 20:33N 57°37' E 011°07'1313.0
2017-Feb-16 19:33N 57°29' E 011°25'1413.5
2017-Feb-16 18:33N 57°16' E 011°34'11911.9
2017-Feb-16 08:33N 55°18' E 011°03'1111.2
2017-Feb-16 07:33N 55°07' E 010°60'1211.7
2017-Feb-16 06:33N 54°56' E 010°53'1212.3
2017-Feb-16 05:33N 54°44' E 010°47'1111.3
2017-Feb-16 04:33N 54°36' E 011°01'1212.4
2017-Feb-16 03:33N 54°33' E 011°21'1313.0
2017-Feb-16 02:33N 54°27' E 011°42'1212.0
2017-Feb-16 01:33N 54°26' E 012°02'1110.6
2017-Feb-16 00:33N 54°34' E 012°15'1212.4
2017-Feb-15 23:33N 54°43' E 012°30'1812.8
2017-Feb-15 22:08N 54°51' E 012°58'1013.1
2017-Feb-15 21:24N 54°54' E 013°14'1113.3
2017-Feb-15 20:33N 54°58' E 013°33'1313.5
2017-Feb-15 19:33N 55°03' E 013°54'1312.6
2017-Feb-15 18:33N 55°10' E 014°12'1313.2
2017-Feb-15 17:33N 55°20' E 014°27'1312.9
2017-Feb-15 16:33N 55°29' E 014°44'1313.5
2017-Feb-15 15:33N 55°36' E 015°04'1413.5
2017-Feb-15 14:33N 55°42' E 015°25'1313.3
2017-Feb-15 13:33N 55°49' E 015°46'1713.3
2017-Feb-15 12:15N 55°58' E 016°12'27913.4
2017-Feb-14 15:24N 59°21' E 022°10'3713.2
2017-Feb-14 12:33N 59°37' E 023°17'1414.0
2017-Feb-14 11:33N 59°41' E 023°44'1613.5
2017-Feb-14 10:24N 59°45' E 024°14'5213.1
2017-Feb-14 06:27N 59°56' E 025°54'1312.8
2017-Feb-14 05:27N 59°60' E 026°19'1112.4
2017-Feb-14 04:33N 60°01' E 026°41'1312.2
2017-Feb-14 03:27N 60°01' E 027°08'1212.9
2017-Feb-14 02:33N 60°07' E 027°27'1212.1
2017-Feb-14 01:33N 60°12' E 027°50'1313.2
2017-Feb-14 00:33N 60°08' E 028°15'1111.3
2017-Feb-13 23:33N 60°03' E 028°36'9 9.1
2017-Feb-13 22:33N 60°03' E 028°54'9 9.1
2017-Feb-13 21:33N 60°02' E 029°12'8 8.1
2017-Feb-13 20:32N 60°01' E 029°28'8 7.8
2017-Feb-13 19:33N 59°59' E 029°43'3 3.1
2017-Feb-13 18:33N 59°56' E 029°42'0 0.0
2017-Feb-13 17:28N 59°56' E 029°42'0 0.0
2017-Feb-13 16:31N 59°56' E 029°42'  
Track history (hours):
 
Tides and Currents Weather Stations Pressure Air Temp Water Temp Dewpoint Dewpoint Depression Visibility Wind Speed Wind Dir Waves Ship Positions

Fesco Vladimir

Last reported at 2017-Feb-23 15:33 UTC. Time now 2017-Feb-24 02:10 UTC.
Position N 55°41' E 006°52'.

Length 184 m; draft 9.5 m.

Type: Ship (hazmat cat A). MMSI: 209777000.

Date/timePositionNaut miles runAvg speedWind from/ knotsBaromVisibWave heightAir tempDewpointWater temp
2017-Feb-23 15:33N 55°41' E 006°52'1212.1
2017-Feb-23 14:33N 55°30' E 006°45'1313.0
2017-Feb-23 13:33N 55°17' E 006°42'1313.4
2017-Feb-23 12:33N 55°04' E 006°47'1313.5
2017-Feb-23 11:33N 54°51' E 006°55'6612.3
2017-Feb-23 06:11N 54°01' E 008°09'710.6
2017-Feb-23 05:33N 53°60' E 008°20'1514.7
2017-Feb-23 04:33N 53°53' E 008°42'1515.4
2017-Feb-23 03:34N 53°53' E 009°09'1212.4
2017-Feb-23 02:33N 53°45' E 009°25'1515.2
2017-Feb-23 01:33N 53°34' E 009°42'7 7.1
2017-Feb-23 00:31N 53°32' E 009°55'0 0.0
2017-Feb-22 23:29N 53°32' E 009°55'0 0.0
2017-Feb-22 22:32N 53°32' E 009°55'0 0.0
2017-Feb-22 21:32N 53°32' E 009°55'0 0.0
2017-Feb-22 20:32N 53°32' E 009°55'0 0.0
2017-Feb-22 19:32N 53°32' E 009°55'0 0.0
2017-Feb-22 18:32N 53°32' E 009°55'0 0.0
2017-Feb-22 17:32N 53°32' E 009°55'0 0.0
2017-Feb-22 16:32N 53°32' E 009°55'0 0.0
2017-Feb-22 15:32N 53°32' E 009°55'0 0.0
2017-Feb-22 14:33N 53°32' E 009°55'4 4.3
2017-Feb-22 13:33N 53°33' E 009°48'10 9.9
2017-Feb-22 12:33N 53°37' E 009°32'1413.9
2017-Feb-22 11:34N 53°50' E 009°21'1110.9
2017-Feb-22 10:33N 53°52' E 009°03'1212.2
2017-Feb-22 09:33N 53°53' E 008°42'1313.1
2017-Feb-22 08:33N 53°59' E 008°23'1111.5
2017-Feb-22 07:33N 53°59' E 008°03'1312.8
2017-Feb-22 06:33N 53°57' E 007°42'9114.5
2017-Feb-22 00:16N 53°32' E 005°14'1114.3
2017-Feb-21 23:30N 53°28' E 004°57'2713.8
2017-Feb-21 21:33N 53°07' E 004°28'1615.8
2017-Feb-21 20:33N 52°53' E 004°16'1514.6
2017-Feb-21 19:33N 52°40' E 004°04'1313.0
2017-Feb-21 18:33N 52°29' E 003°54'1312.7
2017-Feb-21 17:33N 52°16' E 003°52'1212.3
2017-Feb-21 16:33N 52°04' E 003°55'1110.8
2017-Feb-21 15:34N 51°58' E 004°09'1010.1
2017-Feb-21 14:33N 51°54' E 004°24'1 1.2
2017-Feb-21 13:33N 51°54' E 004°26'0 0.0
2017-Feb-21 12:33N 51°54' E 004°26'0 0.0
2017-Feb-21 11:33N 51°54' E 004°26'0 0.0
2017-Feb-21 10:33N 51°54' E 004°26'0 0.0
2017-Feb-21 09:33N 51°54' E 004°26'0 0.0
2017-Feb-21 08:33N 51°54' E 004°26'0 0.0
2017-Feb-21 07:33N 51°54' E 004°26'0 0.1
2017-Feb-21 06:34N 51°54' E 004°26'1 0.6
2017-Feb-21 05:33N 51°53' E 004°27'0 0.0
2017-Feb-21 04:33N 51°53' E 004°27'0 0.0
2017-Feb-21 03:33N 51°53' E 004°27'0 0.0
2017-Feb-21 02:33N 51°53' E 004°27'0 0.0
2017-Feb-21 01:33N 51°53' E 004°27'3 2.9
2017-Feb-21 00:33N 51°54' E 004°22'1010.3
2017-Feb-20 23:33N 51°58' E 004°07'3 2.5
2017-Feb-20 22:33N 51°57' E 004°04'0 0.2
2017-Feb-20 21:33N 51°57' E 004°04'0 0.0
2017-Feb-20 20:32N 51°57' E 004°04'0 0.0
2017-Feb-20 19:32N 51°57' E 004°04'0 0.0
2017-Feb-20 18:33N 51°57' E 004°04'0 0.0
2017-Feb-20 17:32N 51°57' E 004°04'0 0.0
2017-Feb-20 16:32N 51°57' E 004°04'0 0.0
2017-Feb-20 15:32N 51°57' E 004°04'0 0.0
2017-Feb-20 14:33N 51°57' E 004°04'1 0.6
2017-Feb-20 13:33N 51°57' E 004°05'0 0.0
2017-Feb-20 12:33N 51°57' E 004°05'0 0.0
2017-Feb-20 11:33N 51°57' E 004°05'0 0.0
2017-Feb-20 10:33N 51°57' E 004°05'0 0.0
2017-Feb-20 09:33N 51°57' E 004°05'0 0.0
2017-Feb-20 08:33N 51°57' E 004°05'0 0.0
2017-Feb-20 07:33N 51°57' E 004°05'0 0.0
2017-Feb-20 06:33N 51°57' E 004°05'0 0.0
2017-Feb-20 05:33N 51°57' E 004°05'0 0.0
2017-Feb-20 04:33N 51°57' E 004°05'0 0.0
2017-Feb-20 03:33N 51°57' E 004°05'0 0.0
2017-Feb-20 02:30N 51°57' E 004°05'0 0.0
2017-Feb-20 01:33N 51°57' E 004°05'0 0.0
2017-Feb-20 00:33N 51°57' E 004°05'0 0.0
2017-Feb-19 23:33N 51°57' E 004°05'0 0.0
2017-Feb-19 22:33N 51°57' E 004°05'0 0.0
2017-Feb-19 21:33N 51°57' E 004°05'1 0.6
2017-Feb-19 20:33N 51°58' E 004°04'2 1.6
2017-Feb-19 19:32N 51°59' E 004°02'0 0.0
2017-Feb-19 18:32N 51°59' E 004°02'0 0.0
2017-Feb-19 17:32N 51°59' E 004°02'0 0.0
2017-Feb-19 16:32N 51°59' E 004°02'0 0.0
2017-Feb-19 15:32N 51°59' E 004°02'0 0.0
2017-Feb-19 14:32N 51°59' E 004°02'0 0.0
2017-Feb-19 13:32N 51°59' E 004°02'0 0.0
2017-Feb-19 12:32N 51°59' E 004°02'0 0.0
2017-Feb-19 11:32N 51°59' E 004°02'0 0.0
2017-Feb-19 10:32N 51°59' E 004°02'0 0.0
2017-Feb-19 09:31N 51°59' E 004°02'0 0.0
2017-Feb-19 08:32N 51°59' E 004°02'0 0.0
2017-Feb-19 07:31N 51°59' E 004°02'0 0.0
2017-Feb-19 06:31N 51°59' E 004°02'0 0.0
2017-Feb-19 05:32N 51°59' E 004°02'1 1.5
2017-Feb-19 04:33N 51°58' E 004°03'1 0.8
2017-Feb-19 03:33N 51°57' E 004°02'0 0.0
2017-Feb-19 02:33N 51°57' E 004°02'0 0.0
2017-Feb-19 01:31N 51°57' E 004°02'1 1.0
2017-Feb-19 00:33N 51°58' E 004°02'2 1.9
2017-Feb-18 23:31N 51°57' E 003°59'0 0.0
2017-Feb-18 22:28N 51°57' E 003°59'0 0.0
2017-Feb-18 21:31N 51°57' E 003°59'0 0.0
2017-Feb-18 20:31N 51°57' E 003°59'0 0.0
2017-Feb-18 19:31N 51°57' E 003°59'0 0.0
2017-Feb-18 18:31N 51°57' E 003°59'0 0.0
2017-Feb-18 17:31N 51°57' E 003°59'0 0.0
2017-Feb-18 16:31N 51°57' E 003°59'0 0.0
2017-Feb-18 15:31N 51°57' E 003°59'0 0.0
2017-Feb-18 14:31N 51°57' E 003°59'0 0.0
2017-Feb-18 13:31N 51°57' E 003°59'2 1.9
2017-Feb-18 12:34N 51°59' E 004°00'1 1.5
2017-Feb-18 11:33N 52°00' E 003°59'8 8.2
2017-Feb-18 10:33N 52°03' E 003°47'6 5.6
2017-Feb-18 09:33N 52°09' E 003°46'5 5.1
2017-Feb-18 08:33N 52°14' E 003°46'5 4.6
2017-Feb-18 07:33N 52°18' E 003°47'7 7.0
2017-Feb-18 06:33N 52°25' E 003°49'1211.9
2017-Feb-18 05:33N 52°37' E 003°53'1813.2
2017-Feb-18 04:13N 52°54' E 003°59'1413.3
2017-Feb-18 03:08N 53°05' E 004°15'813.9
2017-Feb-18 02:33N 53°10' E 004°25'1413.8
2017-Feb-18 01:32N 53°23' E 004°33'4313.1
2017-Feb-17 22:16N 54°04' E 004°57'10413.4
2017-Feb-17 14:32N 55°35' E 006°22'1313.5
2017-Feb-17 13:32N 55°47' E 006°34'17611.8
2017-Feb-16 22:33N 57°49' E 010°27'1212.0
2017-Feb-16 21:33N 57°46' E 010°49'1313.2
2017-Feb-16 20:33N 57°37' E 011°07'1313.0
2017-Feb-16 19:33N 57°29' E 011°25'1413.5
2017-Feb-16 18:33N 57°16' E 011°34'11911.9
2017-Feb-16 08:33N 55°18' E 011°03'1111.2
2017-Feb-16 07:33N 55°07' E 010°60'1211.7
2017-Feb-16 06:33N 54°56' E 010°53'1212.3
2017-Feb-16 05:33N 54°44' E 010°47'1111.3
2017-Feb-16 04:33N 54°36' E 011°01'1212.4
2017-Feb-16 03:33N 54°33' E 011°21'1313.0
2017-Feb-16 02:33N 54°27' E 011°42'1212.0
2017-Feb-16 01:33N 54°26' E 012°02'1110.6
2017-Feb-16 00:33N 54°34' E 012°15'1212.4
2017-Feb-15 23:33N 54°43' E 012°30'1812.8
2017-Feb-15 22:08N 54°51' E 012°58'1013.1
2017-Feb-15 21:24N 54°54' E 013°14'1113.3
2017-Feb-15 20:33N 54°58' E 013°33'1313.5
2017-Feb-15 19:33N 55°03' E 013°54'1312.6
2017-Feb-15 18:33N 55°10' E 014°12'1313.2
2017-Feb-15 17:33N 55°20' E 014°27'1312.9
2017-Feb-15 16:33N 55°29' E 014°44'1313.5
2017-Feb-15 15:33N 55°36' E 015°04'1413.5
2017-Feb-15 14:33N 55°42' E 015°25'1313.3
2017-Feb-15 13:33N 55°49' E 015°46'1713.3
2017-Feb-15 12:15N 55°58' E 016°12'27913.4
2017-Feb-14 15:24N 59°21' E 022°10'3713.2
2017-Feb-14 12:33N 59°37' E 023°17'1414.0
2017-Feb-14 11:33N 59°41' E 023°44'1613.5
2017-Feb-14 10:24N 59°45' E 024°14'5213.1
2017-Feb-14 06:27N 59°56' E 025°54'1312.8
2017-Feb-14 05:27N 59°60' E 026°19'1112.4
2017-Feb-14 04:33N 60°01' E 026°41'1312.2
2017-Feb-14 03:27N 60°01' E 027°08'1212.9
2017-Feb-14 02:33N 60°07' E 027°27'1212.1
2017-Feb-14 01:33N 60°12' E 027°50'1313.2
2017-Feb-14 00:33N 60°08' E 028°15'1111.3
2017-Feb-13 23:33N 60°03' E 028°36'9 9.1
2017-Feb-13 22:33N 60°03' E 028°54'9 9.1
2017-Feb-13 21:33N 60°02' E 029°12'8 8.1
2017-Feb-13 20:32N 60°01' E 029°28'8 7.8
2017-Feb-13 19:33N 59°59' E 029°43'3 3.1
2017-Feb-13 18:33N 59°56' E 029°42'0 0.0
2017-Feb-13 17:28N 59°56' E 029°42'0 0.0
2017-Feb-13 16:31N 59°56' E 029°42'  

Dump ship's entire track history